createdAt,value
2019-04-28T00:00:55.001Z,8.20
2019-04-28T00:03:24.206Z,8.30
2019-04-28T00:05:54.407Z,8.30
2019-04-28T00:08:24.169Z,8.20
2019-04-28T00:10:53.726Z,8.10
2019-04-28T00:13:22.906Z,8.00
2019-04-28T00:15:53.443Z,8.10
2019-04-28T00:18:23.141Z,8.00
2019-04-28T00:21:31.814Z,8.10
2019-04-28T00:24:16.793Z,8.10
2019-04-28T00:26:55.078Z,8.10
2019-04-28T00:29:37.329Z,8.00
2019-04-28T00:31:55.290Z,7.90
2019-04-28T00:34:24.559Z,7.90
2019-04-28T00:37:01.291Z,7.80
2019-04-28T00:39:31.097Z,7.90
2019-04-28T00:42:03.041Z,7.80
2019-04-28T00:44:32.311Z,7.80
2019-04-28T00:47:02.020Z,7.70
2019-04-28T00:49:47.984Z,7.70
2019-04-28T00:52:18.568Z,7.80
2019-04-28T00:54:49.333Z,7.80
2019-04-28T00:57:21.056Z,7.70
2019-04-28T00:59:57.488Z,7.70
2019-04-28T01:02:42.529Z,7.70
2019-04-28T01:05:12.610Z,7.70
2019-04-28T01:07:41.742Z,7.60
2019-04-28T01:10:11.850Z,7.60
2019-04-28T01:12:41.452Z,7.60
2019-04-28T01:15:20.092Z,7.60
2019-04-28T01:18:04.452Z,7.60
2019-04-28T01:20:33.708Z,7.60
2019-04-28T01:23:02.911Z,7.60
2019-04-28T01:25:32.087Z,7.50
2019-04-28T01:28:01.278Z,7.40
2019-04-28T01:31:01.751Z,7.40
2019-04-28T01:33:55.733Z,7.30
2019-04-28T01:36:25.258Z,7.40
2019-04-28T01:38:54.466Z,7.40
2019-04-28T01:41:24.017Z,7.40
2019-04-28T01:43:53.618Z,7.40
2019-04-28T01:46:23.134Z,7.40
2019-04-28T01:48:52.700Z,7.40
2019-04-28T01:51:21.890Z,7.50
2019-04-28T01:53:51.851Z,7.50
2019-04-28T01:56:20.990Z,7.40
2019-04-28T01:58:51.750Z,7.40
2019-04-28T02:01:21.486Z,7.40
2019-04-28T02:03:50.661Z,7.40
2019-04-28T02:06:19.949Z,7.40
2019-04-28T02:08:51.316Z,7.30
2019-04-28T02:11:20.699Z,7.30
2019-04-28T02:13:50.301Z,7.40
2019-04-28T02:16:19.971Z,7.50
2019-04-28T02:18:49.706Z,7.40
2019-04-28T02:21:40.754Z,7.50
2019-04-28T02:24:28.345Z,7.40
2019-04-28T02:26:57.798Z,7.30
2019-04-28T02:29:26.939Z,7.30
2019-04-28T02:31:56.606Z,7.40
2019-04-28T02:34:25.743Z,7.40
2019-04-28T02:36:54.978Z,7.30
2019-04-28T02:39:24.559Z,7.30
2019-04-28T02:41:53.754Z,7.30
2019-04-28T02:44:23.776Z,7.30
2019-04-28T02:46:54.430Z,7.40
2019-04-28T02:49:45.579Z,7.50
2019-04-28T02:52:22.232Z,7.40
2019-04-28T02:54:51.786Z,7.30
2019-04-28T02:57:21.139Z,7.30
2019-04-28T02:59:51.021Z,7.30
2019-04-28T03:02:21.042Z,7.40
2019-04-28T03:04:50.923Z,7.30
2019-04-28T03:07:21.692Z,7.30
2019-04-28T03:09:51.995Z,7.30
2019-04-28T03:12:21.806Z,7.40
2019-04-28T03:17:33.198Z,7.10
2019-04-28T03:20:02.697Z,7.10
2019-04-28T03:22:33.660Z,7.10
2019-04-28T03:25:04.465Z,7.10
2019-04-28T03:27:52.418Z,7.10
2019-04-28T03:30:43.445Z,7.10
2019-04-28T03:33:18.062Z,7.10
2019-04-28T03:35:43.870Z,7.10
2019-04-28T03:38:13.299Z,7.10
2019-04-28T03:40:42.515Z,7.10
2019-04-28T03:43:14.217Z,7.10
2019-04-28T03:45:50.313Z,7.20
2019-04-28T03:48:21.050Z,7.20
2019-04-28T03:50:51.356Z,7.30
2019-04-28T03:53:21.014Z,7.30
2019-04-28T03:55:51.598Z,7.30
2019-04-28T03:58:21.877Z,7.20
2019-04-28T04:00:51.601Z,7.10
2019-04-28T04:03:21.327Z,7.00
2019-04-28T04:05:51.045Z,7.00
2019-04-28T04:08:21.097Z,7.10
2019-04-28T04:11:13.821Z,7.20
2019-04-28T04:13:51.472Z,7.30
2019-04-28T04:16:31.455Z,7.30
2019-04-28T04:19:01.388Z,7.30
2019-04-28T04:21:31.164Z,7.20
2019-04-28T04:24:01.192Z,7.20
2019-04-28T04:26:33.390Z,7.20
2019-04-28T04:29:01.757Z,7.20
2019-04-28T04:31:31.872Z,7.30
2019-04-28T04:34:03.414Z,7.30
2019-04-28T04:36:34.818Z,7.30
2019-04-28T04:39:06.278Z,7.30
2019-04-28T04:41:35.607Z,7.30
2019-04-28T04:44:06.151Z,7.20
2019-04-28T04:46:35.713Z,7.00
2019-04-28T04:49:04.829Z,6.90
2019-04-28T04:51:34.013Z,7.00
2019-04-28T04:54:03.228Z,7.10
2019-04-28T04:56:32.910Z,7.20
2019-04-28T04:59:04.270Z,7.10
2019-04-28T05:01:55.856Z,7.10
2019-04-28T05:04:54.150Z,7.10
2019-04-28T05:07:24.671Z,7.10
2019-04-28T05:09:53.791Z,7.00
2019-04-28T05:12:23.915Z,7.00
2019-04-28T05:15:00.496Z,7.00
2019-04-28T05:17:30.187Z,7.10
2019-04-28T05:20:01.245Z,7.20
2019-04-28T05:22:33.985Z,7.20
2019-04-28T05:25:13.770Z,7.20
2019-04-28T05:27:43.039Z,7.20
2019-04-28T05:30:13.969Z,7.20
2019-04-28T05:32:49.607Z,7.20
2019-04-28T05:35:17.529Z,7.20
2019-04-28T05:37:45.265Z,7.20
2019-04-28T05:40:14.380Z,7.30
2019-04-28T05:43:00.477Z,7.40
2019-04-28T05:45:32.236Z,7.50
2019-04-28T05:48:02.198Z,7.50
2019-04-28T05:50:50.063Z,7.40
2019-04-28T05:53:26.382Z,7.40
2019-04-28T05:56:15.515Z,7.50
2019-04-28T05:58:50.343Z,7.50
2019-04-28T06:01:37.321Z,7.60
2019-04-28T06:04:06.550Z,7.50
2019-04-28T06:06:40.541Z,7.60
2019-04-28T06:09:20.354Z,7.60
2019-04-28T06:11:49.650Z,7.60
2019-04-28T06:14:20.086Z,7.70
2019-04-28T06:16:50.653Z,7.70
2019-04-28T06:19:20.270Z,7.80
2019-04-28T06:21:52.002Z,7.90
2019-04-28T06:24:23.271Z,7.90
2019-04-28T06:26:52.818Z,8.00
2019-04-28T06:29:26.113Z,8.00
2019-04-28T06:31:55.406Z,8.10
2019-04-28T06:34:25.063Z,8.10
2019-04-28T06:37:02.023Z,8.20
2019-04-28T06:39:31.257Z,8.30
2019-04-28T06:42:01.441Z,8.30
2019-04-28T06:44:30.610Z,8.30
2019-04-28T06:46:59.828Z,8.30
2019-04-28T06:49:30.000Z,8.40
2019-04-28T06:51:59.503Z,8.50
2019-04-28T06:54:29.018Z,8.50
2019-04-28T06:56:58.288Z,8.50
2019-04-28T06:59:28.238Z,8.60
2019-04-28T07:01:57.363Z,8.70
2019-04-28T07:04:26.551Z,8.80
2019-04-28T07:06:56.465Z,8.90
2019-04-28T07:09:26.740Z,9.00
2019-04-28T07:11:57.159Z,9.10
2019-04-28T07:14:27.410Z,9.20
2019-04-28T07:16:56.990Z,9.30
2019-04-28T07:19:26.462Z,9.40
2019-04-28T07:22:16.184Z,9.40
2019-04-28T07:24:45.425Z,9.50
2019-04-28T07:27:14.737Z,9.40
2019-04-28T07:29:44.436Z,9.30
2019-04-28T07:32:15.765Z,9.20
2019-04-28T07:34:46.102Z,9.20
2019-04-28T07:37:15.190Z,9.20
2019-04-28T07:39:44.314Z,9.30
2019-04-28T07:42:14.227Z,9.40
2019-04-28T07:44:43.349Z,9.50
2019-04-28T07:47:12.550Z,9.60
2019-04-28T07:49:41.634Z,9.80
2019-04-28T07:52:23.062Z,9.90
2019-04-28T07:54:52.491Z,10.10
2019-04-28T07:57:24.060Z,10.00
2019-04-28T07:59:53.446Z,9.90
2019-04-28T08:02:22.624Z,9.90
2019-04-28T08:04:52.170Z,10.00
2019-04-28T08:07:21.361Z,10.10
2019-04-28T08:09:51.202Z,10.30
2019-04-28T08:12:20.400Z,10.40
2019-04-28T08:14:49.499Z,11.00
2019-04-28T08:17:18.705Z,11.30
2019-04-28T08:19:48.121Z,11.80
2019-04-28T08:22:17.612Z,12.20
2019-04-28T08:24:46.704Z,12.60
2019-04-28T08:27:16.179Z,12.90
2019-04-28T08:29:57.787Z,12.80
2019-04-28T08:32:31.118Z,12.50
2019-04-28T08:35:00.859Z,12.00
2019-04-28T08:37:30.387Z,11.80
2019-04-28T08:39:59.508Z,11.60
2019-04-28T08:42:29.042Z,11.40
2019-04-28T08:44:58.202Z,11.40
2019-04-28T08:47:27.315Z,11.40
2019-04-28T08:49:56.495Z,11.40
2019-04-28T08:52:25.646Z,11.50
2019-04-28T08:54:55.055Z,11.60
2019-04-28T08:57:24.188Z,11.70
2019-04-28T08:59:54.080Z,12.10
2019-04-28T09:02:23.838Z,12.60
2019-04-28T09:04:53.282Z,13.10
2019-04-28T09:07:22.682Z,13.40
2019-04-28T09:09:52.403Z,13.40
2019-04-28T09:12:21.551Z,13.30
2019-04-28T09:14:51.044Z,13.40
2019-04-28T09:17:20.514Z,13.60
2019-04-28T09:19:50.083Z,13.90
2019-04-28T09:22:19.617Z,14.00
2019-04-28T09:24:49.206Z,13.90
2019-04-28T09:27:18.686Z,13.80
2019-04-28T09:29:48.251Z,14.00
2019-04-28T09:32:17.449Z,13.90
2019-04-28T09:34:47.580Z,13.80
2019-04-28T09:37:16.738Z,13.50
2019-04-28T09:39:53.250Z,13.30
2019-04-28T09:42:59.621Z,13.20
2019-04-28T09:45:31.846Z,12.90
2019-04-28T09:48:01.934Z,12.70
2019-04-28T09:50:31.086Z,12.60
2019-04-28T09:53:04.295Z,12.50
2019-04-28T09:55:33.456Z,12.50
2019-04-28T09:58:02.650Z,12.50
2019-04-28T10:00:31.855Z,12.60
2019-04-28T10:03:01.330Z,12.80
2019-04-28T10:05:30.536Z,13.20
2019-04-28T10:08:00.038Z,13.50
2019-04-28T10:10:29.443Z,13.70
2019-04-28T10:12:58.896Z,13.90
2019-04-28T10:15:28.935Z,14.00
2019-04-28T10:17:58.707Z,14.10
2019-04-28T10:20:30.362Z,14.20
2019-04-28T10:22:59.735Z,14.40
2019-04-28T10:25:29.192Z,14.70
2019-04-28T10:27:58.675Z,15.40
2019-04-28T10:30:28.192Z,16.10
2019-04-28T10:32:57.764Z,16.00
2019-04-28T10:35:27.183Z,15.90
2019-04-28T10:37:56.705Z,15.50
2019-04-28T10:40:51.567Z,15.20
2019-04-28T10:43:21.389Z,15.00
2019-04-28T10:45:51.098Z,14.60
2019-04-28T10:48:20.570Z,14.40
2019-04-28T10:50:49.782Z,14.20
2019-04-28T10:53:18.897Z,14.10
2019-04-28T10:55:48.362Z,13.80
2019-04-28T10:58:18.269Z,13.70
2019-04-28T11:00:48.150Z,13.70
2019-04-28T11:03:17.250Z,13.60
2019-04-28T11:05:46.521Z,13.40
2019-04-28T11:08:29.925Z,13.30
2019-04-28T11:11:01.185Z,13.20
2019-04-28T11:13:30.348Z,13.00
2019-04-28T11:15:59.545Z,12.90
2019-04-28T11:18:29.034Z,12.90
2019-04-28T11:20:58.158Z,12.90
2019-04-28T11:23:27.290Z,12.90
2019-04-28T11:25:56.408Z,12.80
2019-04-28T11:28:25.893Z,12.90
2019-04-28T11:30:55.408Z,13.00
2019-04-28T11:33:43.889Z,13.10
2019-04-28T11:36:13.714Z,13.20
2019-04-28T11:38:42.904Z,13.20
2019-04-28T11:41:12.826Z,13.40
2019-04-28T11:43:42.327Z,13.50
2019-04-28T11:46:13.127Z,13.60
2019-04-28T11:48:42.310Z,13.70
2019-04-28T11:51:12.256Z,13.80
2019-04-28T11:53:41.736Z,13.80
2019-04-28T11:56:10.950Z,13.90
2019-04-28T11:58:40.334Z,14.00
2019-04-28T12:01:10.867Z,14.20
2019-04-28T12:03:40.458Z,14.30
2019-04-28T12:06:09.965Z,14.30
2019-04-28T12:08:39.063Z,14.40
2019-04-28T12:11:21.994Z,14.50
2019-04-28T12:14:13.983Z,14.60
2019-04-28T12:17:08.566Z,14.60
2019-04-28T12:19:45.440Z,14.60
2019-04-28T12:22:14.679Z,14.80
2019-04-28T12:24:44.111Z,14.80
2019-04-28T12:27:13.535Z,14.90
2019-04-28T12:29:43.011Z,14.90
2019-04-28T12:32:12.543Z,14.80
2019-04-28T12:34:43.025Z,14.60
2019-04-28T12:37:12.606Z,14.40
2019-04-28T12:39:41.743Z,14.20
2019-04-28T12:42:10.880Z,14.20
2019-04-28T12:44:40.298Z,14.20
2019-04-28T12:47:09.889Z,14.20
2019-04-28T12:49:49.377Z,14.30
2019-04-28T12:52:18.498Z,14.40
2019-04-28T12:54:48.010Z,14.30
2019-04-28T12:57:17.911Z,14.20
2019-04-28T12:59:53.192Z,14.20
2019-04-28T13:02:51.223Z,14.30
2019-04-28T13:05:20.875Z,14.30
2019-04-28T13:07:50.088Z,14.30
2019-04-28T13:10:19.570Z,14.30
2019-04-28T13:12:48.695Z,14.40
2019-04-28T13:15:17.888Z,14.50
2019-04-28T13:17:47.077Z,14.50
2019-04-28T13:20:16.907Z,14.50
2019-04-28T13:22:46.491Z,14.60
2019-04-28T13:25:16.170Z,14.70
2019-04-28T13:27:45.293Z,14.70
2019-04-28T13:30:16.049Z,14.80
2019-04-28T13:32:45.530Z,14.80
2019-04-28T13:35:15.698Z,14.80
2019-04-28T13:37:45.308Z,14.80
2019-04-28T13:40:24.642Z,14.80
2019-04-28T13:42:54.128Z,14.70
2019-04-28T13:45:23.838Z,14.80
2019-04-28T13:47:53.348Z,14.80
2019-04-28T13:50:29.245Z,14.80
2019-04-28T13:52:58.666Z,14.80
2019-04-28T13:55:49.866Z,14.80
2019-04-28T13:58:21.449Z,14.70
2019-04-28T14:01:09.626Z,14.70
2019-04-28T14:04:06.648Z,14.70
2019-04-28T14:06:40.245Z,14.80
2019-04-28T14:09:15.910Z,14.80
2019-04-28T14:11:45.513Z,14.80
2019-04-28T14:14:14.703Z,14.90
2019-04-28T14:16:44.005Z,14.90
2019-04-28T14:19:13.582Z,14.90
2019-04-28T14:21:43.058Z,15.00
2019-04-28T14:24:12.608Z,15.00
2019-04-28T14:26:42.442Z,15.00
2019-04-28T14:29:11.668Z,15.00
2019-04-28T14:31:40.878Z,15.00
2019-04-28T14:34:12.542Z,14.90
2019-04-28T14:36:42.672Z,14.90
2019-04-28T14:39:12.561Z,14.80
2019-04-28T14:41:42.342Z,14.80
2019-04-28T14:44:11.479Z,14.70
2019-04-28T14:46:40.639Z,14.60
2019-04-28T14:49:09.825Z,14.60
2019-04-28T14:51:39.033Z,14.50
2019-04-28T14:54:08.522Z,14.50
2019-04-28T14:56:38.031Z,14.50
2019-04-28T14:59:07.747Z,14.50
2019-04-28T15:02:08.376Z,14.50
2019-04-28T15:05:09.244Z,14.40
2019-04-28T15:07:53.561Z,14.50
2019-04-28T15:10:40.871Z,14.50
2019-04-28T15:13:10.383Z,14.60
2019-04-28T15:15:39.490Z,14.50
2019-04-28T15:18:09.098Z,14.50
2019-04-28T15:20:38.281Z,14.50
2019-04-28T15:23:08.035Z,14.60
2019-04-28T15:25:37.179Z,14.60
2019-04-28T15:28:06.626Z,14.60
2019-04-28T15:30:35.871Z,14.60
2019-04-28T15:33:05.067Z,14.60
2019-04-28T15:35:35.646Z,14.50
2019-04-28T15:38:06.756Z,14.40
2019-04-28T15:40:36.776Z,14.30
2019-04-28T15:43:05.982Z,14.30
2019-04-28T15:45:35.113Z,14.30
2019-04-28T15:48:05.006Z,14.20
2019-04-28T15:50:34.449Z,14.20
2019-04-28T15:53:03.743Z,14.20
2019-04-28T15:55:39.309Z,14.20
2019-04-28T15:58:26.932Z,14.20
2019-04-28T16:00:56.193Z,14.10
2019-04-28T16:03:25.296Z,14.10
2019-04-28T16:05:54.926Z,14.10
2019-04-28T16:08:24.227Z,14.00
2019-04-28T16:10:53.509Z,14.00
2019-04-28T16:13:22.653Z,13.90
2019-04-28T16:15:52.180Z,13.80
2019-04-28T16:18:21.342Z,13.70
2019-04-28T16:20:50.549Z,13.70
2019-04-28T16:23:19.750Z,13.70
2019-04-28T16:25:48.934Z,13.70
2019-04-28T16:28:18.398Z,13.60
2019-04-28T16:30:47.895Z,13.60
2019-04-28T16:33:17.440Z,13.60
2019-04-28T16:35:47.252Z,13.60
2019-04-28T16:38:16.475Z,13.60
2019-04-28T16:40:52.069Z,13.50
2019-04-28T16:43:26.046Z,13.50
2019-04-28T16:45:55.576Z,13.40
2019-04-28T16:48:24.825Z,13.40
2019-04-28T16:50:56.030Z,13.40
2019-04-28T16:53:25.664Z,13.40
2019-04-28T16:56:27.212Z,13.50
2019-04-28T16:59:08.417Z,13.50
2019-04-28T17:02:02.034Z,13.50
2019-04-28T17:04:31.267Z,13.40
2019-04-28T17:07:01.924Z,13.40
2019-04-28T17:09:31.130Z,13.40
2019-04-28T17:12:01.108Z,13.30
2019-04-28T17:14:30.375Z,13.30
2019-04-28T17:16:59.994Z,13.30
2019-04-28T17:19:29.167Z,13.30
2019-04-28T17:21:58.710Z,13.40
2019-04-28T17:24:28.616Z,13.40
2019-04-28T17:26:58.115Z,13.40
2019-04-28T17:29:27.759Z,13.30
2019-04-28T17:31:57.027Z,13.30
2019-04-28T17:34:27.658Z,13.30
2019-04-28T17:36:57.158Z,13.30
2019-04-28T17:39:28.234Z,13.30
2019-04-28T17:41:57.818Z,13.30
2019-04-28T17:44:27.006Z,13.20
2019-04-28T17:46:56.247Z,13.20
2019-04-28T17:49:31.179Z,13.20
2019-04-28T17:52:00.940Z,13.10
2019-04-28T17:54:30.181Z,13.10
2019-04-28T17:57:04.427Z,13.10
2019-04-28T17:59:33.992Z,13.10
2019-04-28T18:02:32.380Z,13.00
2019-04-28T18:05:20.127Z,13.00
2019-04-28T18:07:52.129Z,13.00
2019-04-28T18:10:21.962Z,12.90
2019-04-28T18:13:00.663Z,12.80
2019-04-28T18:15:50.715Z,12.80
2019-04-28T18:18:41.456Z,12.70
2019-04-28T18:21:10.703Z,12.70
2019-04-28T18:23:40.223Z,12.60
2019-04-28T18:26:09.404Z,12.50
2019-04-28T18:28:38.646Z,12.40
2019-04-28T18:31:21.965Z,12.40
2019-04-28T18:34:09.418Z,12.40
2019-04-28T18:36:48.888Z,12.30
2019-04-28T18:39:37.066Z,12.20
2019-04-28T18:42:14.749Z,12.20
2019-04-28T18:44:44.067Z,12.10
2019-04-28T18:47:13.615Z,12.00
2019-04-28T18:49:43.642Z,12.00
2019-04-28T18:52:12.846Z,11.80
2019-04-28T18:54:42.435Z,11.70
2019-04-28T18:57:11.995Z,11.70
2019-04-28T18:59:41.304Z,11.70
2019-04-28T19:02:16.195Z,11.60
2019-04-28T19:04:46.436Z,11.60
2019-04-28T19:07:20.208Z,11.50
2019-04-28T19:09:58.618Z,11.30
2019-04-28T19:12:36.249Z,11.10
2019-04-28T19:15:34.314Z,11.00
2019-04-28T19:18:14.472Z,10.90
2019-04-28T19:20:43.617Z,10.80
2019-04-28T19:23:13.466Z,10.80
2019-04-28T19:25:42.954Z,10.80
2019-04-28T19:28:12.393Z,10.70
2019-04-28T19:30:41.648Z,10.70
2019-04-28T19:33:26.679Z,10.70
2019-04-28T19:35:56.220Z,10.70
2019-04-28T19:38:25.431Z,10.60
2019-04-28T19:40:55.171Z,10.50
2019-04-28T19:43:24.275Z,10.30
2019-04-28T19:45:55.423Z,10.30
2019-04-28T19:48:25.470Z,10.20
2019-04-28T19:50:54.923Z,10.20
2019-04-28T19:53:24.110Z,10.20
2019-04-28T19:55:59.846Z,10.10
2019-04-28T19:58:34.224Z,10.10
2019-04-28T20:01:14.995Z,10.00
2019-04-28T20:03:44.199Z,9.90
2019-04-28T20:06:13.322Z,9.90
2019-04-28T20:08:42.847Z,9.90
2019-04-28T20:11:12.572Z,9.90
2019-04-28T20:13:42.379Z,9.90
2019-04-28T20:16:11.502Z,9.90
2019-04-28T20:18:40.939Z,9.80
2019-04-28T20:21:10.543Z,9.90
2019-04-28T20:23:39.779Z,9.90
2019-04-28T20:26:09.339Z,9.80
2019-04-28T20:28:39.275Z,9.80
2019-04-28T20:31:08.818Z,9.90
2019-04-28T20:33:38.826Z,9.90
2019-04-28T20:36:14.673Z,9.90
2019-04-28T20:38:44.987Z,9.80
2019-04-28T20:41:22.266Z,9.90
2019-04-28T20:43:52.043Z,9.90
2019-04-28T20:46:25.701Z,9.90
2019-04-28T20:48:54.818Z,9.90
2019-04-28T20:51:24.002Z,9.80
2019-04-28T20:53:53.175Z,9.80
2019-04-28T20:56:22.596Z,9.80
2019-04-28T20:58:51.738Z,9.80
2019-04-28T21:01:22.642Z,9.80
2019-04-28T21:03:52.029Z,9.80
2019-04-28T21:06:21.792Z,9.80
2019-04-28T21:08:50.974Z,9.80
2019-04-28T21:11:20.236Z,9.80
2019-04-28T21:13:49.350Z,9.70
2019-04-28T21:16:18.544Z,9.60
2019-04-28T21:18:47.943Z,9.50
2019-04-28T21:21:17.421Z,9.40
2019-04-28T21:23:48.016Z,9.40
2019-04-28T21:26:18.161Z,9.30
2019-04-28T21:28:47.643Z,9.40
2019-04-28T21:31:16.741Z,9.40
2019-04-28T21:33:49.910Z,9.50
2019-04-28T21:36:19.108Z,9.60
2019-04-28T21:38:50.446Z,9.60
2019-04-28T21:41:20.819Z,9.60
2019-04-28T21:44:03.383Z,9.70
2019-04-28T21:46:43.810Z,9.70
2019-04-28T21:49:25.907Z,9.70
2019-04-28T21:51:58.976Z,9.60
2019-04-28T21:54:29.674Z,9.60
2019-04-28T21:56:59.179Z,9.60
2019-04-28T21:59:28.682Z,9.60
2019-04-28T22:01:57.873Z,9.60
2019-04-28T22:04:27.766Z,9.50
2019-04-28T22:06:57.000Z,9.40
2019-04-28T22:09:26.271Z,9.40
2019-04-28T22:11:55.501Z,9.40
2019-04-28T22:14:25.292Z,9.50
2019-04-28T22:16:54.799Z,9.40
2019-04-28T22:19:23.939Z,9.40
2019-04-28T22:21:53.329Z,9.50
2019-04-28T22:24:36.842Z,9.50
2019-04-28T22:27:06.907Z,9.60
2019-04-28T22:29:36.069Z,9.50
2019-04-28T22:32:05.589Z,9.60
2019-04-28T22:34:34.699Z,9.60
2019-04-28T22:37:04.222Z,9.60
2019-04-28T22:39:35.194Z,9.60
2019-04-28T22:42:04.861Z,9.60
2019-04-28T22:44:34.365Z,9.60
2019-04-28T22:47:03.894Z,9.60
2019-04-28T22:49:33.323Z,9.60
2019-04-28T22:52:02.591Z,9.60
2019-04-28T22:54:41.011Z,9.60
2019-04-28T22:57:26.226Z,9.60
2019-04-28T22:59:55.731Z,9.60
2019-04-28T23:02:25.587Z,9.50
2019-04-28T23:05:03.339Z,9.60
2019-04-28T23:07:32.610Z,9.60
2019-04-28T23:10:03.613Z,9.50
2019-04-28T23:12:32.877Z,9.60
2019-04-28T23:15:02.112Z,9.50
2019-04-28T23:17:32.262Z,9.50
2019-04-28T23:20:01.350Z,9.50
2019-04-28T23:22:46.673Z,9.50
2019-04-28T23:25:08.918Z,9.50
2019-04-28T23:27:38.021Z,9.50
2019-04-28T23:30:09.295Z,9.50
2019-04-28T23:32:38.747Z,9.50
2019-04-28T23:35:08.329Z,9.50
2019-04-28T23:37:37.802Z,9.40
2019-04-28T23:40:07.470Z,9.40
2019-04-28T23:42:41.791Z,9.40
2019-04-28T23:45:12.286Z,9.40
2019-04-28T23:47:41.613Z,9.40
2019-04-28T23:50:13.094Z,9.40
2019-04-28T23:53:07.289Z,9.40
2019-04-28T23:55:36.484Z,9.50
2019-04-28T23:58:05.740Z,9.50
